Time;durP1;ratioP1;P1;durP2;ratioP2;P2;SDS_P1;SDS_P2;PMS_P1;PMS_P2;Temp;Humidity;BMP_temperature;BMP_pressure;BME280_temperature;BME280_humidity;BME280_pressure;Samples;Min_cycle;Max_cycle;Signal;HPM_P1;HPM_P2
2024/01/21 00:02:21;;;;;;;1.35;0.73;;;22.00;29.70;;;;;;5116350;28;20281;-36
2024/01/21 00:04:48;;;;;;;1.33;0.77;;;22.00;29.80;;;;;;5111724;28;20036;-36
2024/01/21 00:07:14;;;;;;;;;;;22.00;29.90;;;;;;5112399;28;20060;-39
2024/01/21 00:09:41;;;;;;;1.73;0.80;;;22.00;29.90;;;;;;5117363;28;19949;-37
2024/01/21 00:12:07;;;;;;;1.17;0.77;;;22.10;29.80;;;;;;5113312;28;20111;-34
2024/01/21 00:14:36;;;;;;;1.45;0.70;;;22.10;29.80;;;;;;5112756;27;20051;-37
2024/01/21 00:17:04;;;;;;;3.92;0.82;;;22.10;29.90;;;;;;5110951;27;20055;-35
2024/01/21 00:19:31;;;;;;;3.47;0.80;;;22.10;29.70;;;;;;5113609;27;20024;-37
2024/01/21 00:21:57;;;;;;;1.03;0.83;;;22.30;29.50;;;;;;5109735;27;20092;-36
2024/01/21 00:24:24;;;;;;;1.02;0.70;;;22.40;29.60;;;;;;5111647;28;20278;-38
2024/01/21 00:26:50;;;;;;;1.23;0.93;;;22.40;29.60;;;;;;5118303;27;20089;-34
2024/01/21 00:29:16;;;;;;;1.20;0.73;;;22.30;29.70;;;;;;5117083;27;20561;-34
2024/01/21 00:31:43;;;;;;;1.13;0.77;;;22.20;29.60;;;;;;5119278;27;20078;-38
2024/01/21 00:34:09;;;;;;;0.88;0.60;;;22.10;29.70;;;;;;5113800;27;20043;-35
2024/01/21 00:36:35;;;;;;;2.50;1.00;;;22.00;29.70;;;;;;5119857;28;20030;-35
2024/01/21 00:39:01;;;;;;;1.17;0.80;;;22.00;29.80;;;;;;5118993;28;20034;-38
2024/01/21 00:41:27;;;;;;;1.05;0.73;;;22.10;29.80;;;;;;5119646;28;20032;-35
2024/01/21 00:43:53;;;;;;;1.98;1.13;;;22.10;29.90;;;;;;5119280;28;20032;-36
2024/01/21 00:46:19;;;;;;;1.48;0.95;;;22.10;29.80;;;;;;5119766;28;20057;-36
2024/01/21 00:48:46;;;;;;;1.00;0.90;;;22.00;29.80;;;;;;5122906;27;20438;-35
2024/01/21 00:51:12;;;;;;;1.48;0.90;;;21.90;29.90;;;;;;5120198;28;20028;-36
2024/01/21 00:53:38;;;;;;;1.73;0.90;;;22.00;29.90;;;;;;5120787;28;20038;-35
2024/01/21 00:56:04;;;;;;;1.35;0.93;;;22.20;29.50;;;;;;5120308;27;20034;-36
2024/01/21 00:58:30;;;;;;;2.40;1.20;;;22.20;29.70;;;;;;5118783;27;20026;-35
2024/01/21 01:00:57;;;;;;;1.92;1.38;;;22.10;29.70;;;;;;5115836;27;20295;-34
2024/01/21 01:03:24;;;;;;;1.70;1.23;;;22.00;29.70;;;;;;5112732;28;20110;-35
2024/01/21 01:05:50;;;;;;;1.60;1.20;;;21.90;29.80;;;;;;5114906;28;20063;-38
2024/01/21 01:08:17;;;;;;;3.30;1.15;;;21.90;29.90;;;;;;5111281;27;20035;-33
2024/01/21 01:10:44;;;;;;;2.42;1.20;;;22.00;29.90;;;;;;5107470;28;20034;-33
2024/01/21 01:13:10;;;;;;;1.40;1.10;;;22.00;29.90;;;;;;5105238;28;20028;-33
2024/01/21 01:15:37;;;;;;;2.55;1.20;;;22.00;29.90;;;;;;5106553;28;20036;-31
2024/01/21 01:18:03;;;;;;;1.83;1.20;;;21.90;29.80;;;;;;5107098;28;20028;-38
2024/01/21 01:20:29;;;;;;;1.63;1.37;;;21.90;29.80;;;;;;5106038;28;20167;-37
2024/01/21 01:22:57;;;;;;;1.70;1.20;;;21.80;29.80;;;;;;5107470;28;20023;-34
2024/01/21 01:25:26;;;;;;;1.65;1.23;;;22.00;29.80;;;;;;5103462;27;20031;-36
2024/01/21 01:27:52;;;;;;;2.03;1.52;;;22.10;29.60;;;;;;5105048;27;20059;-33
2024/01/21 01:30:19;;;;;;;1.95;1.38;;;22.10;29.60;;;;;;5114035;27;20111;-36
2024/01/21 01:32:45;;;;;;;2.30;1.70;;;22.10;29.70;;;;;;5115730;28;20091;-36
2024/01/21 01:35:11;;;;;;;1.98;1.40;;;22.00;29.70;;;;;;5112991;28;20422;-36
2024/01/21 01:37:37;;;;;;;2.55;1.60;;;21.90;29.80;;;;;;5111107;28;20032;-35
2024/01/21 01:40:06;;;;;;;1.85;1.48;;;21.80;29.90;;;;;;5112571;27;20046;-37
2024/01/21 01:42:32;;;;;;;2.97;1.45;;;21.90;30.00;;;;;;5113428;28;20020;-37
2024/01/21 01:45:02;;;;;;;2.28;1.60;;;21.90;29.90;;;;;;5113481;28;20064;-37
2024/01/21 01:47:28;;;;;;;2.42;1.63;;;21.90;29.80;;;;;;5113695;28;20099;-36
2024/01/21 01:49:55;;;;;;;2.47;1.53;;;21.90;29.90;;;;;;5099732;28;20075;-36
2024/01/21 01:52:21;;;;;;;2.08;1.50;;;21.90;29.90;;;;;;5117578;27;20039;-39
2024/01/21 01:54:47;;;;;;;1.92;1.50;;;21.80;29.70;;;;;;5119034;28;20500;-37
2024/01/21 01:57:15;;;;;;;2.00;1.55;;;22.00;29.80;;;;;;5114513;27;20032;-35
2024/01/21 01:59:41;;;;;;;2.15;1.52;;;22.10;29.50;;;;;;5117261;28;20144;-37
2024/01/21 02:02:07;;;;;;;2.08;1.60;;;22.20;29.70;;;;;;5117190;28;20055;-39
2024/01/21 02:04:34;;;;;;;2.45;1.88;;;22.20;29.70;;;;;;5113604;28;20084;-35
2024/01/21 02:07:00;;;;;;;2.50;1.60;;;22.10;29.70;;;;;;5118960;27;20031;-35
2024/01/21 02:09:26;;;;;;;3.20;1.67;;;22.00;29.70;;;;;;5116868;28;20027;-36
2024/01/21 02:11:53;;;;;;;3.88;1.83;;;21.90;30.00;;;;;;5114812;28;20024;-36
2024/01/21 02:14:20;;;;;;;3.35;1.88;;;21.80;29.90;;;;;;5117548;28;20038;-35
2024/01/21 02:16:46;;;;;;;2.97;1.98;;;21.80;30.00;;;;;;5116707;28;20023;-35
2024/01/21 02:19:25;;;;;;;2.72;1.90;;;21.90;30.00;;;;;;5118551;28;20058;-36
2024/01/21 02:21:51;;;;;;;4.38;1.85;;;21.90;29.90;;;;;;5118473;28;20062;-35
2024/01/21 02:24:17;;;;;;;3.55;1.90;;;21.80;29.90;;;;;;5117723;28;20094;-35
2024/01/21 02:26:43;;;;;;;3.35;1.80;;;21.80;29.80;;;;;;5118309;28;20043;-36
2024/01/21 02:29:10;;;;;;;2.17;1.50;;;21.90;29.80;;;;;;5115903;28;20023;-37
2024/01/21 02:31:36;;;;;;;2.60;1.75;;;22.10;29.60;;;;;;5118419;28;20039;-35
2024/01/21 02:34:02;;;;;;;4.45;2.00;;;22.10;29.70;;;;;;5117646;27;20072;-35
2024/01/21 02:36:28;;;;;;;3.50;1.98;;;22.10;29.90;;;;;;5119386;28;20023;-34
2024/01/21 02:38:54;;;;;;;2.85;2.10;;;22.00;29.80;;;;;;5117972;28;20776;-33
2024/01/21 02:41:20;;;;;;;2.58;1.80;;;21.90;29.90;;;;;;5116037;28;20035;-36
2024/01/21 02:43:46;;;;;;;3.08;2.05;;;21.80;30.00;;;;;;5107882;28;20020;-37
2024/01/21 02:46:13;;;;;;;3.50;2.10;;;21.80;30.10;;;;;;5105691;28;20032;-38
2024/01/21 02:48:39;;;;;;;3.42;2.67;;;21.80;30.00;;;;;;5107565;28;20059;-34
2024/01/21 02:51:05;;;;;;;3.80;2.40;;;21.80;30.00;;;;;;5105174;28;20077;-39
2024/01/21 02:53:31;;;;;;;3.65;2.50;;;21.90;29.90;;;;;;5103986;28;20096;-36
2024/01/21 02:55:57;;;;;;;3.38;2.25;;;21.90;29.90;;;;;;5107709;28;20043;-35
2024/01/21 02:58:23;;;;;;;3.90;2.60;;;21.80;30.30;;;;;;5107088;28;20027;-37
2024/01/21 03:00:50;;;;;;;4.70;2.70;;;21.80;29.90;;;;;;5106067;28;20062;-37
2024/01/21 03:03:16;;;;;;;4.35;2.63;;;21.90;29.90;;;;;;5108351;28;20069;-33
2024/01/21 03:05:42;;;;;;;3.88;2.78;;;22.10;29.60;;;;;;5105519;28;21329;-37
2024/01/21 03:08:09;;;;;;;4.38;2.85;;;22.20;29.70;;;;;;5107517;28;20039;-36
2024/01/21 03:10:35;;;;;;;3.63;2.85;;;22.10;29.80;;;;;;5108821;28;20073;-36
2024/01/21 03:13:01;;;;;;;4.60;3.30;;;22.10;29.90;;;;;;5117242;28;20756;-38
2024/01/21 03:15:28;;;;;;;4.15;2.97;;;21.90;29.90;;;;;;5114226;28;20031;-37
2024/01/21 03:17:54;;;;;;;4.10;2.85;;;21.80;30.00;;;;;;5114645;28;20047;-38
2024/01/21 03:20:20;;;;;;;4.50;2.90;;;21.80;30.00;;;;;;5118295;28;20131;-40
2024/01/21 03:22:46;;;;;;;5.55;3.08;;;21.80;29.90;;;;;;5117139;28;20026;-38
2024/01/21 03:25:12;;;;;;;4.20;2.70;;;21.80;29.90;;;;;;5118698;28;20027;-39
2024/01/21 03:27:38;;;;;;;6.13;2.85;;;21.70;30.00;;;;;;5117446;28;20698;-41
2024/01/21 03:30:05;;;;;;;4.35;2.80;;;21.60;30.10;;;;;;5115059;28;20053;-37
2024/01/21 03:32:31;;;;;;;5.55;2.55;;;21.50;30.20;;;;;;5115014;28;20593;-37
2024/01/21 03:34:57;;;;;;;3.67;2.42;;;21.60;30.30;;;;;;5117019;28;20031;-39
2024/01/21 03:37:24;;;;;;;4.35;2.03;;;21.70;30.20;;;;;;5117875;28;20028;-38
2024/01/21 03:39:50;;;;;;;3.00;2.25;;;21.90;30.20;;;;;;5119647;28;20047;-37
2024/01/21 03:42:16;;;;;;;3.63;2.55;;;22.00;30.20;;;;;;5117341;28;20427;-36
2024/01/21 03:44:42;;;;;;;3.88;2.55;;;21.80;30.10;;;;;;5115936;28;20032;-37
2024/01/21 03:47:08;;;;;;;4.65;2.53;;;21.70;30.20;;;;;;5118156;28;20071;-37
2024/01/21 03:49:35;;;;;;;3.00;1.90;;;21.60;30.60;;;;;;5117502;28;20438;-39
2024/01/21 03:52:01;;;;;;;3.77;2.37;;;21.50;30.50;;;;;;5117846;28;20027;-38
2024/01/21 03:54:27;;;;;;;3.20;1.90;;;21.50;30.50;;;;;;5116923;28;20034;-38
2024/01/21 03:56:53;;;;;;;3.40;2.20;;;21.50;30.40;;;;;;5119514;28;20085;-38
2024/01/21 03:59:19;;;;;;;3.30;2.10;;;21.50;31.00;;;;;;5118230;28;20028;-37
2024/01/21 04:01:46;;;;;;;2.22;1.92;;;21.40;30.60;;;;;;5119359;28;20028;-39
2024/01/21 04:04:12;;;;;;;2.67;2.08;;;21.40;30.60;;;;;;5118215;28;20024;-39
2024/01/21 04:06:42;;;;;;;2.43;1.50;;;21.50;30.70;;;;;;5116553;28;20103;-37
2024/01/21 04:09:09;;;;;;;2.30;1.67;;;21.60;30.50;;;;;;5114223;28;20272;-36
2024/01/21 04:11:35;;;;;;;;;;;21.80;30.40;;;;;;5118718;28;20055;-38
2024/01/21 04:14:01;;;;;;;2.80;1.70;;;21.90;30.10;;;;;;5118111;28;20240;-39
2024/01/21 04:16:28;;;;;;;2.40;1.55;;;22.00;30.10;;;;;;5115766;28;20024;-36
2024/01/21 04:18:54;;;;;;;2.00;1.52;;;22.00;30.10;;;;;;5114449;28;20032;-37
2024/01/21 04:21:20;;;;;;;3.10;1.40;;;22.00;30.30;;;;;;5115624;28;20027;-39
2024/01/21 04:23:46;;;;;;;1.85;1.38;;;22.10;30.20;;;;;;5114533;28;20036;-39
2024/01/21 04:26:13;;;;;;;2.03;1.58;;;22.20;30.10;;;;;;5114108;28;20045;-37
2024/01/21 04:28:39;;;;;;;2.85;1.77;;;22.10;30.20;;;;;;5117765;28;20075;-39
2024/01/21 04:31:06;;;;;;;2.15;1.70;;;21.90;30.20;;;;;;5120972;28;20032;-36
2024/01/21 04:33:32;;;;;;;1.70;1.40;;;21.80;30.40;;;;;;5120567;28;20555;-37
2024/01/21 04:35:58;;;;;;;1.98;1.52;;;21.70;30.40;;;;;;5119010;28;20055;-38
2024/01/21 04:38:25;;;;;;;1.40;1.23;;;21.70;30.20;;;;;;5117877;28;20032;-39
2024/01/21 04:40:54;;;;;;;2.67;1.60;;;21.70;30.20;;;;;;5120634;28;20663;-38
2024/01/21 04:43:20;;;;;;;2.13;1.50;;;21.60;30.20;;;;;;5112223;28;20073;-38
2024/01/21 04:45:47;;;;;;;4.43;1.63;;;21.50;30.30;;;;;;5112986;27;20035;-37
2024/01/21 04:48:13;;;;;;;2.10;1.45;;;21.40;30.50;;;;;;5113230;27;20023;-38
2024/01/21 04:50:39;;;;;;;1.70;1.48;;;21.40;30.60;;;;;;5113553;28;20055;-38
2024/01/21 04:53:05;;;;;;;1.65;1.30;;;21.40;30.60;;;;;;5112422;28;20085;-40
2024/01/21 04:55:31;;;;;;;2.15;1.60;;;21.60;30.60;;;;;;5112979;28;20489;-39
2024/01/21 04:57:57;;;;;;;1.50;1.20;;;21.70;30.40;;;;;;5112778;28;20054;-39
2024/01/21 05:00:23;;;;;;;1.90;1.20;;;21.80;30.40;;;;;;5098869;28;20028;-37
2024/01/21 05:02:50;;;;;;;2.70;1.55;;;21.90;30.40;;;;;;5092653;28;20103;-38
2024/01/21 05:05:16;;;;;;;1.60;1.40;;;21.90;30.40;;;;;;5104172;28;20036;-36
2024/01/21 05:08:01;;;;;;;2.63;1.48;;;22.00;30.50;;;;;;5106785;28;20040;-38
2024/01/21 05:10:27;;;;;;;1.90;1.50;;;22.10;30.50;;;;;;5107519;28;20031;-38
2024/01/21 05:12:53;;;;;;;2.35;1.50;;;22.10;30.50;;;;;;5115187;28;20042;-39
2024/01/21 05:15:19;;;;;;;1.88;1.38;;;22.00;30.30;;;;;;5113529;28;20019;-37
2024/01/21 05:17:45;;;;;;;1.92;1.45;;;21.90;30.50;;;;;;5118107;28;20043;-39
2024/01/21 05:20:12;;;;;;;2.17;1.30;;;21.70;30.60;;;;;;5111816;27;20151;-38
2024/01/21 05:22:38;;;;;;;1.65;1.30;;;21.70;30.50;;;;;;5115827;27;20104;-36
2024/01/21 05:25:04;;;;;;;2.25;1.40;;;21.60;30.50;;;;;;5111118;27;20042;-40
2024/01/21 05:27:31;;;;;;;6.72;1.65;;;21.60;30.60;;;;;;5111261;28;20847;-42
2024/01/21 05:30:01;;;;;;;3.58;1.33;;;21.60;30.70;;;;;;5114294;27;20047;-39
2024/01/21 05:32:27;;;;;;;3.45;1.60;;;21.50;30.70;;;;;;5115005;27;20034;-38
2024/01/21 05:34:53;;;;;;;13.05;4.80;;;21.40;31.00;;;;;;5113227;28;20028;-37
2024/01/21 05:37:19;;;;;;;4.60;2.10;;;21.40;31.90;;;;;;5114641;28;20624;-38
2024/01/21 05:39:45;;;;;;;5.05;2.22;;;21.50;31.10;;;;;;5116213;28;20032;-35
2024/01/21 05:42:12;;;;;;;3.10;1.90;;;21.60;30.90;;;;;;5112433;28;20031;-41
2024/01/21 05:44:38;;;;;;;2.92;1.95;;;21.80;30.80;;;;;;5110728;28;20116;-38
2024/01/21 05:47:04;;;;;;;4.00;1.93;;;21.80;31.50;;;;;;5111887;28;20959;-36
2024/01/21 05:49:30;;;;;;;7.15;1.77;;;21.70;30.80;;;;;;5112267;28;20034;-37
2024/01/21 05:51:56;;;;;;;2.83;1.77;;;21.60;31.10;;;;;;5116022;28;20028;-34
2024/01/21 05:54:23;;;;;;;3.30;1.90;;;21.50;31.10;;;;;;5117168;28;20031;-36
2024/01/21 05:56:49;;;;;;;2.83;1.80;;;21.30;31.50;;;;;;5112063;28;20091;-36
2024/01/21 05:59:17;;;;;;;4.05;1.80;;;21.30;32.30;;;;;;5117800;27;20174;-35
2024/01/21 06:01:44;;;;;;;2.10;1.52;;;21.30;31.50;;;;;;5109664;28;20031;-37
2024/01/21 06:04:10;;;;;;;1.83;1.48;;;21.30;31.40;;;;;;5110956;28;20109;-35
2024/01/21 06:06:37;;;;;;;2.40;1.67;;;21.30;31.40;;;;;;5107494;28;20040;-36
2024/01/21 06:09:03;;;;;;;3.92;1.35;;;21.30;31.40;;;;;;5110967;28;20028;-33
2024/01/21 06:11:29;;;;;;;1.80;1.48;;;21.40;31.30;;;;;;5090283;28;20035;-33
2024/01/21 06:13:55;;;;;;;2.05;1.50;;;21.50;31.40;;;;;;5109320;27;20020;-36
2024/01/21 06:16:22;;;;;;;2.63;1.30;;;21.60;31.20;;;;;;5113648;28;20038;-35
2024/01/21 06:18:48;;;;;;;1.95;1.58;;;21.60;31.20;;;;;;5114764;28;20028;-36
2024/01/21 06:21:16;;;;;;;2.30;1.50;;;21.60;31.20;;;;;;5117517;28;20031;-38
2024/01/21 06:23:43;;;;;;;2.30;1.25;;;21.40;31.30;;;;;;5109997;27;20032;-36
2024/01/21 06:26:19;;;;;;;2.63;1.88;;;21.30;31.70;;;;;;5109437;27;20023;-30
2024/01/21 06:28:52;;;;;;;2.08;1.27;;;21.20;31.60;;;;;;5108781;27;20059;-36
2024/01/21 06:31:19;;;;;;;2.05;1.55;;;21.20;31.50;;;;;;5114893;28;20582;-34
2024/01/21 06:33:45;;;;;;;2.35;1.50;;;21.20;31.40;;;;;;5109567;28;20043;-36
2024/01/21 06:36:11;;;;;;;2.25;1.40;;;21.10;31.40;;;;;;5112742;27;20032;-35
2024/01/21 06:38:40;;;;;;;3.05;1.65;;;21.10;31.50;;;;;;5106781;28;20023;-36
2024/01/21 06:41:06;;;;;;;1.67;1.30;;;21.20;32.00;;;;;;5112238;28;20028;-37
2024/01/21 06:43:32;;;;;;;1.75;1.27;;;21.30;31.40;;;;;;5110348;28;20024;-36
2024/01/21 06:45:59;;;;;;;1.83;1.27;;;21.50;31.30;;;;;;5115720;28;20036;-36
2024/01/21 06:48:25;;;;;;;2.97;1.73;;;21.50;31.20;;;;;;5113946;27;20039;-38
2024/01/21 06:50:53;;;;;;;3.63;1.38;;;21.40;31.20;;;;;;5107514;27;20303;-37
2024/01/21 06:53:19;;;;;;;2.50;1.73;;;21.20;31.40;;;;;;5110211;28;20024;-35
2024/01/21 06:55:45;;;;;;;4.00;1.42;;;21.10;31.60;;;;;;5117886;28;20023;-35
2024/01/21 06:58:12;;;;;;;1.95;1.30;;;21.10;31.40;;;;;;5114140;28;20030;-36
2024/01/21 07:00:38;;;;;;;2.20;1.42;;;21.10;31.30;;;;;;5117457;28;20032;-34
2024/01/21 07:03:04;;;;;;;2.63;1.58;;;21.00;31.20;;;;;;5116747;28;20028;-37
2024/01/21 07:05:30;;;;;;;1.95;1.17;;;21.00;31.50;;;;;;5114864;28;20027;-35
2024/01/21 07:07:57;;;;;;;1.75;1.35;;;21.00;31.50;;;;;;5111996;28;20043;-36
2024/01/21 07:10:23;;;;;;;2.10;1.30;;;21.10;31.50;;;;;;5112617;28;20024;-36
2024/01/21 07:12:50;;;;;;;1.73;1.40;;;21.20;31.30;;;;;;5110219;28;20610;-36
2024/01/21 07:15:16;;;;;;;1.70;1.38;;;21.40;31.30;;;;;;5111929;28;20054;-32
2024/01/21 07:17:43;;;;;;;1.35;1.15;;;21.50;30.40;;;;;;5115914;28;20032;-34
2024/01/21 07:20:13;;;;;;;2.70;1.70;;;21.50;30.80;;;;;;5114045;28;20028;-37
2024/01/21 07:22:39;;;;;;;2.58;1.30;;;21.30;30.90;;;;;;5113529;28;20051;-34
2024/01/21 07:25:05;;;;;;;2.10;1.30;;;21.20;31.20;;;;;;5117908;28;20035;-38
2024/01/21 07:27:34;;;;;;;4.67;1.63;;;21.20;31.50;;;;;;5109982;28;20051;-38
2024/01/21 07:30:00;;;;;;;2.90;1.50;;;21.10;31.30;;;;;;5106258;28;20024;-33
2024/01/21 07:32:27;;;;;;;1.73;1.35;;;21.10;31.20;;;;;;5114585;28;20031;-38
2024/01/21 07:34:53;;;;;;;1.70;1.20;;;21.00;31.80;;;;;;5114136;28;20056;-38
2024/01/21 07:37:19;;;;;;;2.10;1.42;;;21.00;31.40;;;;;;5116920;28;20268;-33
2024/01/21 07:39:45;;;;;;;2.20;1.42;;;20.90;31.50;;;;;;5111919;28;20031;-35
2024/01/21 07:42:11;;;;;;;3.38;1.33;;;21.00;31.50;;;;;;5107653;28;20284;-35
2024/01/21 07:44:37;;;;;;;2.10;1.52;;;21.20;31.30;;;;;;5108141;28;20031;-35
2024/01/21 07:47:04;;;;;;;2.10;1.52;;;21.40;31.10;;;;;;5107161;28;20040;-33
2024/01/21 07:49:30;;;;;;;1.80;1.10;;;21.50;31.00;;;;;;5108039;28;20978;-33
2024/01/21 07:51:56;;;;;;;3.05;1.25;;;21.50;31.00;;;;;;5112070;28;20032;-35
2024/01/21 07:54:22;;;;;;;1.80;1.33;;;21.50;31.00;;;;;;5110065;28;20031;-36
2024/01/21 07:56:48;;;;;;;2.15;1.35;;;21.60;30.90;;;;;;5111944;28;20145;-37
2024/01/21 07:59:15;;;;;;;2.03;1.35;;;21.70;30.70;;;;;;5105262;28;20028;-38
2024/01/21 08:01:41;;;;;;;1.83;1.40;;;21.80;30.70;;;;;;5108938;28;20063;-37
2024/01/21 08:04:07;;;;;;;1.92;1.30;;;21.70;30.80;;;;;;5113288;28;20691;-36
2024/01/21 08:06:34;;;;;;;3.17;1.52;;;21.50;31.00;;;;;;5114332;27;20043;-37
2024/01/21 08:09:00;;;;;;;2.38;1.80;;;21.30;31.70;;;;;;5113381;28;20685;-34
2024/01/21 08:11:26;;;;;;;1.85;1.30;;;21.20;31.30;;;;;;5119569;28;20030;-36
2024/01/21 08:13:52;;;;;;;2.25;1.40;;;21.20;31.10;;;;;;5114278;28;20087;-36
2024/01/21 08:16:18;;;;;;;2.08;1.42;;;21.20;31.10;;;;;;5115167;27;20023;-37
2024/01/21 08:18:44;;;;;;;2.03;1.40;;;21.10;31.10;;;;;;5118635;27;20087;-32
2024/01/21 08:21:10;;;;;;;2.00;1.27;;;21.10;31.20;;;;;;5120524;28;20065;-34
2024/01/21 08:23:39;;;;;;;1.45;1.10;;;21.00;31.20;;;;;;5119752;27;20035;-36
2024/01/21 08:26:05;;;;;;;2.03;1.50;;;21.10;31.30;;;;;;5121150;28;20035;-32
2024/01/21 08:28:32;;;;;;;2.08;1.30;;;21.20;31.20;;;;;;5117881;27;20052;-37
2024/01/21 08:30:58;;;;;;;3.25;1.42;;;21.30;31.00;;;;;;5121241;27;20023;-35
2024/01/21 08:33:24;;;;;;;2.95;1.55;;;21.50;30.80;;;;;;5117095;27;20034;-34
2024/01/21 08:35:50;;;;;;;1.90;1.50;;;21.60;30.70;;;;;;5117247;27;20031;-33
2024/01/21 08:38:16;;;;;;;1.75;1.30;;;21.60;30.80;;;;;;5120323;28;20043;-35
2024/01/21 08:40:43;;;;;;;2.00;1.20;;;21.60;30.80;;;;;;5110440;28;20510;-35
2024/01/21 08:43:09;;;;;;;1.73;1.40;;;21.70;30.80;;;;;;5113519;27;20027;-36
2024/01/21 08:45:35;;;;;;;1.90;1.20;;;21.80;30.70;;;;;;5109447;28;20031;-35
2024/01/21 08:48:02;;;;;;;1.70;1.40;;;21.80;30.50;;;;;;5112690;28;20035;-37
2024/01/21 08:50:28;;;;;;;1.88;1.30;;;21.80;30.70;;;;;;5111546;28;20039;-37
2024/01/21 08:52:54;;;;;;;1.50;1.35;;;21.60;30.80;;;;;;5110354;27;20622;-36
2024/01/21 08:55:20;;;;;;;1.50;1.20;;;21.50;31.10;;;;;;5105457;28;20055;-35
2024/01/21 08:57:47;;;;;;;2.15;1.50;;;21.40;31.10;;;;;;5112669;27;21656;-38
2024/01/21 09:00:13;;;;;;;2.50;1.48;;;21.30;30.90;;;;;;5111825;28;20054;-35
2024/01/21 09:02:39;;;;;;;2.50;1.57;;;21.30;30.90;;;;;;5113253;28;20027;-34
2024/01/21 09:05:05;;;;;;;4.00;1.70;;;21.30;31.00;;;;;;5113502;27;20054;-37
2024/01/21 09:07:32;;;;;;;2.97;1.40;;;21.20;31.10;;;;;;5112581;27;20047;-34
2024/01/21 09:09:59;;;;;;;3.43;1.70;;;21.00;31.20;;;;;;5112459;28;20031;-35
2024/01/21 09:12:25;;;;;;;3.08;1.60;;;21.10;31.30;;;;;;5112710;28;20043;-37
2024/01/21 09:14:51;;;;;;;3.88;1.58;;;21.30;31.20;;;;;;5112115;27;20047;-37
2024/01/21 09:17:18;;;;;;;3.05;1.63;;;21.30;31.00;;;;;;5111950;28;20028;-34
2024/01/21 09:19:44;;;;;;;2.15;1.40;;;21.50;31.00;;;;;;5113735;27;20644;-38
2024/01/21 09:22:10;;;;;;;1.90;1.23;;;21.60;30.80;;;;;;5112272;27;20040;-32
2024/01/21 09:24:36;;;;;;;3.80;1.65;;;21.60;30.80;;;;;;5109743;27;20042;-35
2024/01/21 09:27:02;;;;;;;3.20;1.40;;;21.70;30.80;;;;;;5110095;27;20063;-36
2024/01/21 09:29:28;;;;;;;1.95;1.48;;;21.70;30.70;;;;;;5110285;27;20087;-38
2024/01/21 09:31:58;;;;;;;2.13;1.38;;;21.80;30.70;;;;;;5111795;27;20024;-38
2024/01/21 09:34:24;;;;;;;2.55;1.65;;;21.90;30.70;;;;;;5111653;28;20028;-36
2024/01/21 09:36:53;;;;;;;2.00;1.40;;;21.70;30.70;;;;;;5109652;28;20055;-37
2024/01/21 09:39:20;;;;;;;3.70;1.80;;;21.60;30.90;;;;;;5110981;27;20050;-32
2024/01/21 09:41:49;;;;;;;3.22;1.73;;;21.40;31.10;;;;;;5115607;28;20038;-37
2024/01/21 09:44:19;;;;;;;3.72;1.75;;;21.30;31.10;;;;;;5115515;28;20028;-38
2024/01/21 09:46:58;;;;;;;2.33;1.30;;;21.30;31.10;;;;;;5117490;28;20043;-36
2024/01/21 09:49:24;;;;;;;4.45;1.73;;;21.20;31.00;;;;;;5111721;28;20047;-35
2024/01/21 09:51:51;;;;;;;2.20;1.55;;;21.20;31.00;;;;;;5120959;27;21212;-35
2024/01/21 09:54:18;;;;;;;2.20;1.47;;;21.10;31.10;;;;;;5115388;28;20028;-35
2024/01/21 09:56:44;;;;;;;3.78;1.48;;;21.10;31.20;;;;;;5114262;28;20292;-35
2024/01/21 09:59:11;;;;;;;2.50;1.40;;;21.10;31.20;;;;;;5118536;28;20035;-36
2024/01/21 10:01:37;;;;;;;1.70;1.30;;;21.30;31.20;;;;;;5143660;27;20032;-37
2024/01/21 10:04:04;;;;;;;3.25;1.50;;;21.40;31.20;;;;;;5114692;27;20051;-34
2024/01/21 10:06:30;;;;;;;5.07;1.60;;;21.50;30.80;;;;;;5117052;28;20040;-33
2024/01/21 10:09:18;;;;;;;4.55;1.42;;;21.60;30.70;;;;;;5115190;27;21101;-35
2024/01/21 10:11:56;;;;;;;5.32;1.88;;;21.60;31.00;;;;;;5117201;27;20113;-35
2024/01/21 10:14:25;;;;;;;4.95;1.80;;;21.50;31.10;;;;;;5116280;27;20042;-35
2024/01/21 10:16:51;;;;;;;2.20;1.50;;;21.30;31.20;;;;;;5112457;28;20031;-35
2024/01/21 10:19:27;;;;;;;2.17;1.30;;;21.20;31.30;;;;;;5113460;27;20095;-35
2024/01/21 10:22:09;;;;;;;2.67;1.45;;;21.10;31.40;;;;;;5114106;28;20077;-36
2024/01/21 10:24:40;;;;;;;1.90;1.30;;;21.00;31.40;;;;;;5113908;28;20480;-37
2024/01/21 10:27:09;;;;;;;2.58;1.65;;;21.00;31.20;;;;;;5116402;28;20127;-36
2024/01/21 10:29:41;;;;;;;2.83;1.40;;;21.00;31.30;;;;;;5118153;27;20087;-36
2024/01/21 10:32:09;;;;;;;2.60;1.52;;;21.10;31.30;;;;;;5114797;27;20031;-39
2024/01/21 10:34:37;;;;;;;1.75;1.40;;;21.20;31.20;;;;;;5114824;27;20085;-37
2024/01/21 10:37:04;;;;;;;1.80;1.23;;;21.30;31.00;;;;;;5118845;27;20024;-38
2024/01/21 10:39:35;;;;;;;1.60;1.10;;;21.40;31.00;;;;;;5119195;28;20035;-37
2024/01/21 10:42:01;;;;;;;1.80;1.40;;;21.50;31.00;;;;;;5114774;28;20036;-37
2024/01/21 10:44:28;;;;;;;1.50;0.93;;;21.60;30.90;;;;;;5115097;28;20453;-36
2024/01/21 10:46:57;;;;;;;1.80;1.00;;;21.60;30.80;;;;;;5117040;28;20038;-36
2024/01/21 10:49:23;;;;;;;1.98;1.40;;;21.70;30.80;;;;;;5143538;27;20268;-33
2024/01/21 10:51:53;;;;;;;2.22;1.40;;;21.70;30.70;;;;;;5109875;28;20534;-39
2024/01/21 10:54:20;;;;;;;1.90;1.20;;;21.80;30.70;;;;;;5114762;28;20024;-37
2024/01/21 10:56:48;;;;;;;2.15;1.30;;;21.80;30.70;;;;;;5116705;28;20220;-38
2024/01/21 10:59:14;;;;;;;1.80;1.17;;;21.90;30.70;;;;;;5114751;28;20056;-36
2024/01/21 11:01:42;;;;;;;2.67;1.23;;;21.70;30.70;;;;;;5115027;28;20669;-37
2024/01/21 11:04:11;;;;;;;3.42;1.67;;;21.50;30.90;;;;;;5114066;28;20024;-32
2024/01/21 11:06:48;;;;;;;2.00;1.23;;;21.40;31.10;;;;;;5115929;28;20044;-34
2024/01/21 11:09:22;;;;;;;2.38;1.48;;;21.30;31.00;;;;;;5110214;28;20043;-37
2024/01/21 11:11:52;;;;;;;1.92;1.20;;;21.30;30.90;;;;;;5114635;28;20109;-36
2024/01/21 11:14:38;;;;;;;2.28;1.40;;;21.30;30.90;;;;;;5115319;28;20083;-33
2024/01/21 11:17:05;;;;;;;2.22;1.40;;;21.20;31.00;;;;;;5113024;28;20038;-36
2024/01/21 11:19:51;;;;;;;;;;;21.10;31.10;;;;;;5112693;28;20096;-36
2024/01/21 11:22:23;;;;;;;1.30;1.20;;;21.10;31.70;;;;;;5113453;28;19911;-35
2024/01/21 11:24:53;;;;;;;4.10;1.30;;;21.30;31.00;;;;;;5114450;28;20028;-38
2024/01/21 11:27:29;;;;;;;1.85;1.23;;;21.40;30.80;;;;;;5115495;28;20063;-36
2024/01/21 11:29:58;;;;;;;2.17;1.38;;;21.50;30.80;;;;;;5117821;28;20034;-38
2024/01/21 11:32:29;;;;;;;2.35;1.60;;;21.60;30.70;;;;;;5116345;28;20031;-37
2024/01/21 11:35:16;;;;;;;1.60;1.10;;;21.40;30.80;;;;;;5117254;28;20020;-35
2024/01/21 11:37:42;;;;;;;2.70;1.45;;;21.20;31.00;;;;;;5114560;27;20046;-34
2024/01/21 11:40:09;;;;;;;2.42;1.30;;;21.20;31.10;;;;;;5121210;28;20035;-38
2024/01/21 11:42:37;;;;;;;3.10;1.50;;;21.10;31.00;;;;;;5118672;28;20042;-39
2024/01/21 11:45:03;;;;;;;2.78;1.80;;;21.10;30.90;;;;;;5119525;28;20039;-37
2024/01/21 11:47:30;;;;;;;2.40;1.48;;;21.00;30.90;;;;;;5119883;28;20036;-35
2024/01/21 11:49:56;;;;;;;1.92;1.30;;;21.00;31.10;;;;;;5118973;28;20035;-37
2024/01/21 11:52:22;;;;;;;1.75;1.23;;;21.00;31.00;;;;;;5119501;27;20066;-41
2024/01/21 11:54:48;;;;;;;1.38;1.10;;;21.10;31.00;;;;;;5117752;28;20027;-37
2024/01/21 11:57:14;;;;;;;2.38;1.17;;;21.30;30.90;;;;;;5122361;27;20505;-35
2024/01/21 11:59:40;;;;;;;2.03;1.15;;;21.40;30.90;;;;;;5119763;28;20039;-37
2024/01/21 12:02:08;;;;;;;2.30;1.40;;;21.50;30.70;;;;;;5119224;27;20027;-37
2024/01/21 12:04:34;;;;;;;2.08;1.33;;;21.50;30.60;;;;;;5121332;28;20047;-38
2024/01/21 12:07:00;;;;;;;2.53;1.42;;;21.60;30.60;;;;;;5116632;28;20032;-35
2024/01/21 12:09:28;;;;;;;1.63;1.20;;;21.60;30.60;;;;;;5116811;27;20028;-36
2024/01/21 12:11:54;;;;;;;2.08;1.33;;;21.70;30.60;;;;;;5119866;27;20028;-38
2024/01/21 12:14:21;;;;;;;2.03;1.30;;;21.80;30.50;;;;;;5117316;27;20031;-36
2024/01/21 12:16:54;;;;;;;1.92;1.48;;;21.90;30.50;;;;;;5113818;27;20101;-39
2024/01/21 12:19:21;;;;;;;1.95;1.30;;;21.90;30.50;;;;;;5112051;28;20044;-36
2024/01/21 12:21:47;;;;;;;;;;;21.90;30.30;;;;;;5114020;27;20024;-38
2024/01/21 12:24:14;;;;;;;2.22;1.40;;;21.90;30.30;;;;;;5112719;27;19912;-39
2024/01/21 12:26:40;;;;;;;1.38;1.25;;;22.00;30.10;;;;;;5112057;27;20043;-36
2024/01/21 12:29:09;;;;;;;1.95;1.30;;;22.10;30.10;;;;;;5110659;27;20031;-35
2024/01/21 12:31:37;;;;;;;1.90;1.40;;;22.00;30.20;;;;;;5114140;28;20042;-35
2024/01/21 12:34:07;;;;;;;2.03;1.30;;;21.90;30.40;;;;;;5115408;28;20106;-38
2024/01/21 12:36:34;;;;;;;2.00;1.45;;;21.70;30.50;;;;;;5113270;28;20028;-38
2024/01/21 12:39:01;;;;;;;1.70;1.35;;;21.50;30.70;;;;;;5111027;28;20040;-36
2024/01/21 12:41:27;;;;;;;1.85;1.42;;;21.50;30.60;;;;;;5110359;28;20047;-37
2024/01/21 12:43:53;;;;;;;1.80;1.23;;;21.40;30.50;;;;;;5117068;27;20027;-36
2024/01/21 12:46:20;;;;;;;1.95;1.40;;;21.40;30.50;;;;;;5117720;28;20037;-39
2024/01/21 12:48:46;;;;;;;1.92;1.42;;;21.40;30.60;;;;;;5114212;27;20100;-36